createdAt,value
2022-10-17T00:01:52.290Z,101168.58
2022-10-17T00:03:58.074Z,101173.31
2022-10-17T00:06:04.496Z,101176.74
2022-10-17T00:08:09.673Z,101179.8
2022-10-17T00:10:14.875Z,101178.95
2022-10-17T00:12:20.544Z,101185.08
2022-10-17T00:14:25.525Z,101186.3
2022-10-17T00:16:30.627Z,101188.55
2022-10-17T00:18:35.878Z,101188.5
2022-10-17T00:20:41.210Z,101185.2
2022-10-17T00:22:46.634Z,101182.25
2022-10-17T00:24:51.750Z,101181.31
2022-10-17T00:26:57.482Z,101183.25
2022-10-17T00:29:03.097Z,101181.41
2022-10-17T00:31:08.599Z,101178.55
2022-10-17T00:33:13.714Z,101175.45
2022-10-17T00:35:18.814Z,101176.14
2022-10-17T00:37:24.713Z,101173.8
2022-10-17T00:39:29.668Z,101173.98
2022-10-17T00:41:35.169Z,101168.53
2022-10-17T00:43:40.285Z,101169.42
2022-10-17T00:45:45.792Z,101167.02
2022-10-17T00:47:51.107Z,101171.75
2022-10-17T00:49:56.506Z,101181.66
2022-10-17T00:52:01.722Z,101180.7
2022-10-17T00:54:06.909Z,101184.09
2022-10-17T00:56:11.936Z,101180.77
2022-10-17T00:58:17.210Z,101181.86
2022-10-17T01:00:22.436Z,101183.66
2022-10-17T01:02:28.130Z,101190.83
2022-10-17T01:04:34.430Z,101194.25
2022-10-17T01:06:39.831Z,101192.5
2022-10-17T01:08:45.442Z,101192.64
2022-10-17T01:10:50.422Z,101193.31
2022-10-17T01:12:55.552Z,101192.84
2022-10-17T01:15:00.783Z,101187.86
2022-10-17T01:17:05.980Z,101194.4
2022-10-17T01:19:11.245Z,101204.95
2022-10-17T01:21:17.111Z,101206.39
2022-10-17T01:23:22.409Z,101198.94
2022-10-17T01:25:27.632Z,101195.48
2022-10-17T01:27:33.279Z,101193.88
2022-10-17T01:29:38.482Z,101197.83
2022-10-17T01:31:43.712Z,101196.03
2022-10-17T01:33:48.703Z,101192.7
2022-10-17T01:35:54.144Z,101198.36
2022-10-17T01:37:59.368Z,101194.16
2022-10-17T01:40:04.516Z,101193.17
2022-10-17T01:42:09.803Z,101195.08
2022-10-17T01:44:15.306Z,101197.16
2022-10-17T01:46:20.575Z,101196.52
2022-10-17T01:48:25.757Z,101193.09
2022-10-17T01:50:30.959Z,101190.09
2022-10-17T01:52:36.495Z,101193.22
2022-10-17T01:54:42.884Z,101190.08
2022-10-17T01:56:47.798Z,101186.75
2022-10-17T01:58:53.381Z,101188.15
2022-10-17T02:00:58.750Z,101186.52
2022-10-17T02:03:04.099Z,101180.45
2022-10-17T02:05:09.276Z,101175.14
2022-10-17T02:07:14.589Z,101175.38
2022-10-17T02:09:22.898Z,101181.25
2022-10-17T02:11:27.992Z,101188.05
2022-10-17T02:13:33.711Z,101190.2
2022-10-17T02:15:41.837Z,101193.25
2022-10-17T02:17:47.090Z,101194.58
2022-10-17T02:19:52.177Z,101198.13
2022-10-17T02:22:00.789Z,101199.19
2022-10-17T02:24:06.186Z,101204.52
2022-10-17T02:26:11.180Z,101206.96
2022-10-17T02:28:19.671Z,101213.28
2022-10-17T02:30:25.590Z,101208.55
2022-10-17T02:32:30.893Z,101200.77
2022-10-17T02:34:36.121Z,101202.15
2022-10-17T02:36:41.347Z,101199.75
2022-10-17T02:38:46.365Z,101208.69
2022-10-17T02:40:52.194Z,101206.6
2022-10-17T02:42:57.365Z,101209.53
2022-10-17T02:45:02.397Z,101214.53
2022-10-17T02:47:07.550Z,101218.54
2022-10-17T02:49:12.609Z,101225.72
2022-10-17T02:51:17.799Z,101225.67
2022-10-17T02:53:22.781Z,101229.18
2022-10-17T02:55:27.916Z,101236.13
2022-10-17T02:57:33.052Z,101234.08
2022-10-17T02:59:38.275Z,101235.41
2022-10-17T03:01:43.580Z,101234.58
2022-10-17T03:03:49.217Z,101238.7
2022-10-17T03:05:54.601Z,101237.31
2022-10-17T03:08:00.118Z,101237.66
2022-10-17T03:10:05.311Z,101238.66
2022-10-17T03:12:10.620Z,101246.98
2022-10-17T03:14:15.806Z,101252.01
2022-10-17T03:16:21.093Z,101253.64
2022-10-17T03:18:26.122Z,101259.05
2022-10-17T03:20:31.586Z,101267.87
2022-10-17T03:22:36.779Z,101269.95
2022-10-17T03:24:41.717Z,101271.84
2022-10-17T03:26:48.159Z,101269.13
2022-10-17T03:28:55.967Z,101271.17
2022-10-17T03:31:01.094Z,101275.05
2022-10-17T03:33:06.100Z,101276.45
2022-10-17T03:35:16.459Z,101286.46
2022-10-17T03:37:21.598Z,101288.51
2022-10-17T03:39:26.779Z,101292.77
2022-10-17T03:41:32.020Z,101294.31
2022-10-17T03:43:37.278Z,101290.67
2022-10-17T03:45:42.887Z,101287.06
2022-10-17T03:47:48.391Z,101268.89
2022-10-17T03:49:54.083Z,101268.66
2022-10-17T03:51:59.206Z,101273.42
2022-10-17T03:54:04.580Z,101279.27
2022-10-17T03:56:09.761Z,101278.14
2022-10-17T03:58:15.474Z,101272.41
2022-10-17T04:00:20.799Z,101275.91
2022-10-17T04:02:26.039Z,101270.2
2022-10-17T04:04:31.676Z,101278.27
2022-10-17T04:06:37.130Z,101277.92
2022-10-17T04:08:42.698Z,101274.8
2022-10-17T04:10:48.244Z,101274.23
2022-10-17T04:12:53.833Z,101276.61
2022-10-17T04:14:59.064Z,101283.41
2022-10-17T04:17:04.862Z,101285.42
2022-10-17T04:19:10.517Z,101281.88
2022-10-17T04:21:16.123Z,101284.75
2022-10-17T04:23:22.383Z,101284.56
2022-10-17T04:25:30.362Z,101279.63
2022-10-17T04:27:40.694Z,101280.06
2022-10-17T04:29:46.126Z,101284.66
2022-10-17T04:31:51.555Z,101285.23
2022-10-17T04:33:57.127Z,101286.78
2022-10-17T04:36:02.642Z,101293.05
2022-10-17T04:38:08.470Z,101293.02
2022-10-17T04:40:14.083Z,101297.95
2022-10-17T04:42:19.302Z,101304.88
2022-10-17T04:44:25.001Z,101302.42
2022-10-17T04:46:30.558Z,101304.41
2022-10-17T04:48:36.857Z,101303.45
2022-10-17T04:50:42.466Z,101304.05
2022-10-17T04:52:47.533Z,101309.12
2022-10-17T04:54:53.094Z,101307.77
2022-10-17T04:56:58.805Z,101309.69
2022-10-17T04:59:04.121Z,101308.25
2022-10-17T05:01:09.744Z,101302.08
2022-10-17T05:03:15.756Z,101303.66
2022-10-17T05:05:21.509Z,101304.84
2022-10-17T05:07:26.713Z,101307.39
2022-10-17T05:09:32.312Z,101307.05
2022-10-17T05:11:38.102Z,101305.56
2022-10-17T05:13:44.627Z,101309.34
2022-10-17T05:15:50.234Z,101316.83
2022-10-17T05:17:55.691Z,101329.8
2022-10-17T05:20:01.167Z,101331.73
2022-10-17T05:22:06.511Z,101336.28
2022-10-17T05:24:12.250Z,101342.27
2022-10-17T05:26:18.335Z,101341.27
2022-10-17T05:28:23.810Z,101349.15
2022-10-17T05:30:30.662Z,101350.14
2022-10-17T05:32:42.012Z,101349.31
2022-10-17T05:34:47.579Z,101358.8
2022-10-17T05:36:53.064Z,101358.26
2022-10-17T05:38:58.497Z,101362.44
2022-10-17T05:41:04.033Z,101360.74
2022-10-17T05:43:09.764Z,101354.86
2022-10-17T05:45:15.873Z,101354.84
2022-10-17T05:47:22.472Z,101347.83
2022-10-17T05:49:46.224Z,101355.84
2022-10-17T05:51:57.614Z,101364.5
2022-10-17T05:54:03.444Z,101360.8
2022-10-17T05:56:09.133Z,101363.25
2022-10-17T05:58:38.689Z,101361.73
2022-10-17T06:01:04.901Z,101372.99
2022-10-17T06:03:17.059Z,101378.66
2022-10-17T06:05:26.194Z,101378.98
2022-10-17T06:07:32.208Z,101384.67
2022-10-17T06:09:38.496Z,101382.55
2022-10-17T06:11:44.604Z,101376.94
2022-10-17T06:13:50.797Z,101377.22
2022-10-17T06:15:56.594Z,101380
2022-10-17T06:18:01.828Z,101376.41
2022-10-17T06:20:07.627Z,101378.67
2022-10-17T06:22:13.031Z,101385.24
2022-10-17T06:24:18.411Z,101389.16
2022-10-17T06:26:23.818Z,101395.83
2022-10-17T06:28:30.315Z,101398.56
2022-10-17T06:30:36.093Z,101404.93
2022-10-17T06:32:41.662Z,101410.22
2022-10-17T06:34:47.220Z,101409.67
2022-10-17T06:36:53.338Z,101411.63
2022-10-17T06:39:00.169Z,101414.48
2022-10-17T06:41:05.595Z,101416.05
2022-10-17T06:43:11.286Z,101424.09
2022-10-17T06:45:17.012Z,101431.02
2022-10-17T06:47:22.910Z,101430.33
2022-10-17T06:49:28.794Z,101429.39
2022-10-17T06:51:34.288Z,101430.14
2022-10-17T06:53:39.545Z,101432.19
2022-10-17T06:55:44.779Z,101430.02
2022-10-17T06:57:50.308Z,101431.95
2022-10-17T06:59:56.324Z,101430.68
2022-10-17T07:02:01.855Z,101434.46
2022-10-17T07:04:10.123Z,101435.34
2022-10-17T07:06:15.729Z,101437.42
2022-10-17T07:08:21.485Z,101440.61
2022-10-17T07:10:27.403Z,101436.75
2022-10-17T07:12:32.783Z,101438.39
2022-10-17T07:14:38.227Z,101442.27
2022-10-17T07:16:43.952Z,101443.47
2022-10-17T07:18:49.621Z,101447.47
2022-10-17T07:20:55.271Z,101445.74
2022-10-17T07:23:00.751Z,101438.7
2022-10-17T07:25:07.084Z,101429.92
2022-10-17T07:27:12.511Z,101428.2
2022-10-17T07:29:18.071Z,101433.65
2022-10-17T07:31:23.548Z,101433.15
2022-10-17T07:33:28.834Z,101436.3
2022-10-17T07:35:34.181Z,101438.81
2022-10-17T07:37:39.913Z,101442.94
2022-10-17T07:39:46.607Z,101437.52
2022-10-17T07:41:51.622Z,101435.73
2022-10-17T07:43:57.046Z,101435.2
2022-10-17T07:46:02.512Z,101433.67
2022-10-17T07:48:08.271Z,101432.56
2022-10-17T07:50:14.353Z,101425.9
2022-10-17T07:52:20.545Z,101424.98
2022-10-17T07:54:26.378Z,101421.09
2022-10-17T07:56:31.792Z,101420.2
2022-10-17T07:58:37.163Z,101422.44
2022-10-17T08:00:43.065Z,101433.07
2022-10-17T08:02:49.559Z,101430.45
2022-10-17T08:04:55.451Z,101434.45
2022-10-17T08:07:22.003Z,101433.59
2022-10-17T08:09:33.552Z,101433.31
2022-10-17T08:11:39.703Z,101432.95
2022-10-17T08:13:47.735Z,101437.44
2022-10-17T08:15:52.957Z,101436.52
2022-10-17T08:18:01.281Z,101440.02
2022-10-17T08:20:06.528Z,101441.33
2022-10-17T08:22:11.763Z,101442.19
2022-10-17T08:24:17.120Z,101444.47
2022-10-17T08:26:22.879Z,101448.98
2022-10-17T08:28:28.424Z,101453.16
2022-10-17T08:30:33.774Z,101449.73
2022-10-17T08:32:39.397Z,101445.93
2022-10-17T08:34:45.659Z,101446.38
2022-10-17T08:36:51.297Z,101445.48
2022-10-17T08:38:56.662Z,101444.53
2022-10-17T08:41:01.990Z,101442.7
2022-10-17T08:43:07.232Z,101445.41
2022-10-17T08:45:12.934Z,101450.55
2022-10-17T08:47:18.661Z,101450.44
2022-10-17T08:49:24.041Z,101445.59
2022-10-17T08:51:29.430Z,101444.69
2022-10-17T08:53:34.531Z,101439.96
2022-10-17T08:55:45.290Z,101439.3
2022-10-17T08:57:52.295Z,101439.48
2022-10-17T08:59:57.615Z,101435.27
2022-10-17T09:02:02.809Z,101431.19
2022-10-17T09:04:08.059Z,101429.5
2022-10-17T09:06:13.331Z,101430.16
2022-10-17T09:08:19.112Z,101436.27
2022-10-17T09:10:25.177Z,101432.2
2022-10-17T09:12:32.121Z,101432.52
2022-10-17T09:14:38.040Z,101429.35
2022-10-17T09:16:43.372Z,101436.27
2022-10-17T09:18:48.972Z,101427.92
2022-10-17T09:20:54.954Z,101433.53
2022-10-17T09:23:05.302Z,101433.1
2022-10-17T09:25:15.027Z,101427.76
2022-10-17T09:27:20.243Z,101431.01
2022-10-17T09:29:28.597Z,101430.16
2022-10-17T09:31:47.432Z,101433.65
2022-10-17T09:33:56.138Z,101433.7
2022-10-17T09:36:02.388Z,101439.56
2022-10-17T09:38:08.313Z,101439.05
2022-10-17T09:40:13.791Z,101440.98
2022-10-17T09:42:19.443Z,101437.94
2022-10-17T09:44:24.545Z,101435.73
2022-10-17T09:46:30.201Z,101439.66
2022-10-17T09:48:35.966Z,101430.71
2022-10-17T09:50:41.800Z,101433.05
2022-10-17T09:52:47.559Z,101430.12
2022-10-17T09:54:53.196Z,101429.75
2022-10-17T09:56:58.770Z,101432.44
2022-10-17T09:59:04.243Z,101431.24
2022-10-17T10:01:23.737Z,101427.84
2022-10-17T10:03:30.744Z,101432.96
2022-10-17T10:05:37.338Z,101427.61
2022-10-17T10:07:43.152Z,101426.27
2022-10-17T10:09:48.834Z,101431.64
2022-10-17T10:11:54.672Z,101423.97
2022-10-17T10:14:00.049Z,101423.33
2022-10-17T10:16:06.157Z,101419.79
2022-10-17T10:18:12.166Z,101419.71
2022-10-17T10:20:18.548Z,101415.13
2022-10-17T10:22:24.445Z,101416.43
2022-10-17T10:24:32.752Z,101411.56
2022-10-17T10:26:38.262Z,101412.77
2022-10-17T10:28:44.881Z,101412.2
2022-10-17T10:30:51.229Z,101412.72
2022-10-17T10:32:56.961Z,101408.56
2022-10-17T10:35:02.198Z,101407.25
2022-10-17T10:37:07.711Z,101397.86
2022-10-17T10:39:19.478Z,101406.98
2022-10-17T10:41:24.882Z,101393.82
2022-10-17T10:43:30.029Z,101403.55
2022-10-17T10:45:49.403Z,101394.45
2022-10-17T10:47:55.129Z,101396.91
2022-10-17T10:50:00.468Z,101402.83
2022-10-17T10:52:06.121Z,101400.53
2022-10-17T10:54:11.424Z,101395.41
2022-10-17T10:56:17.270Z,101396.72
2022-10-17T10:58:22.890Z,101391.8
2022-10-17T11:00:28.511Z,101390.18
2022-10-17T11:02:34.512Z,101392.44
2022-10-17T11:04:40.911Z,101389.77
2022-10-17T11:06:46.273Z,101387.09
2022-10-17T11:08:51.896Z,101382.77
2022-10-17T11:10:57.907Z,101384.98
2022-10-17T11:13:03.581Z,101381.28
2022-10-17T11:15:09.341Z,101379.09
2022-10-17T11:17:15.539Z,101381.91
2022-10-17T11:19:21.296Z,101370.45
2022-10-17T11:21:27.218Z,101365.4
2022-10-17T11:23:32.990Z,101368.34
2022-10-17T11:25:40.212Z,101363.59
2022-10-17T11:27:46.286Z,101371.2
2022-10-17T11:29:51.993Z,101376.57
2022-10-17T11:31:57.517Z,101375.39
2022-10-17T11:34:03.172Z,101376.73
2022-10-17T11:36:08.717Z,101368
2022-10-17T11:38:14.123Z,101373.98
2022-10-17T11:40:24.777Z,101366.55
2022-10-17T11:42:30.896Z,101366.94
2022-10-17T11:44:36.802Z,101366.36
2022-10-17T11:46:42.124Z,101368.39
2022-10-17T11:48:47.760Z,101370.11
2022-10-17T11:54:07.460Z,101369.13
2022-10-17T11:56:12.821Z,101363.03
2022-10-17T11:58:18.520Z,101364.53
2022-10-17T12:00:24.183Z,101365.31
2022-10-17T12:02:30.497Z,101366.52
2022-10-17T12:04:36.749Z,101364.67
2022-10-17T12:06:51.190Z,101366.38
2022-10-17T12:08:57.749Z,101372.23
2022-10-17T12:11:03.414Z,101371.85
2022-10-17T12:13:09.139Z,101369.58
2022-10-17T12:15:14.952Z,101367.2
2022-10-17T12:17:20.784Z,101373.13
2022-10-17T12:19:26.101Z,101371.23
2022-10-17T12:21:33.391Z,101368.45
2022-10-17T12:23:38.734Z,101367.13
2022-10-17T12:25:44.657Z,101366.92
2022-10-17T12:30:25.833Z,101366.14
2022-10-17T12:33:06.003Z,101366.07
2022-10-17T12:35:13.473Z,101366.07
2022-10-17T12:37:21.020Z,101363.03
2022-10-17T12:39:27.074Z,101358.39
2022-10-17T12:41:33.447Z,101354
2022-10-17T12:43:44.722Z,101357.75
2022-10-17T12:45:51.187Z,101351.06
2022-10-17T12:47:57.949Z,101351.75
2022-10-17T12:50:04.562Z,101350.77
2022-10-17T12:52:10.835Z,101351.66
2022-10-17T12:54:16.909Z,101348.3
2022-10-17T12:56:22.685Z,101344.29
2022-10-17T12:58:28.281Z,101344.61
2022-10-17T13:00:34.591Z,101345.89
2022-10-17T13:02:41.336Z,101342.89
2022-10-17T13:04:46.587Z,101343.76
2022-10-17T13:06:52.033Z,101342.53
2022-10-17T13:09:05.543Z,101342.86
2022-10-17T13:11:11.587Z,101341.37
2022-10-17T13:13:17.782Z,101335.59
2022-10-17T13:15:23.473Z,101335.78
2022-10-17T13:17:29.048Z,101334
2022-10-17T13:19:34.750Z,101340.34
2022-10-17T13:21:40.482Z,101335.47
2022-10-17T13:23:45.918Z,101338.09
2022-10-17T13:25:52.306Z,101337.78
2022-10-17T13:27:58.127Z,101340.94
2022-10-17T13:30:03.467Z,101338.6
2022-10-17T13:32:09.170Z,101336.32
2022-10-17T13:34:14.797Z,101333.01
2022-10-17T13:36:20.050Z,101328.64
2022-10-17T13:38:25.908Z,101329.62
2022-10-17T13:40:50.564Z,101326.31
2022-10-17T13:43:33.104Z,101326.34
2022-10-17T13:45:38.720Z,101324.02
2022-10-17T13:47:44.868Z,101321.27
2022-10-17T13:49:56.489Z,101319.92
2022-10-17T13:52:03.032Z,101322.17
2022-10-17T13:54:09.214Z,101317.63
2022-10-17T13:56:31.504Z,101315.14
2022-10-17T13:58:37.613Z,101311.84
2022-10-17T14:00:43.546Z,101310.05
2022-10-17T14:02:49.566Z,101314.63
2022-10-17T14:05:22.465Z,101308.97
2022-10-17T14:07:37.716Z,101311.05
2022-10-17T14:10:18.841Z,101308.65
2022-10-17T14:12:24.946Z,101309.99
2022-10-17T14:14:51.923Z,101309.67
2022-10-17T14:17:15.562Z,101304.41
2022-10-17T14:19:21.173Z,101305.56
2022-10-17T14:21:45.437Z,101306.37
2022-10-17T14:23:51.348Z,101309.95
2022-10-17T14:25:57.087Z,101308.71
2022-10-17T14:28:03.206Z,101309.02
2022-10-17T14:30:08.947Z,101303.45
2022-10-17T14:32:14.617Z,101304.98
2022-10-17T14:34:20.164Z,101307.05
2022-10-17T14:36:25.239Z,101309.63
2022-10-17T14:38:30.727Z,101311.2
2022-10-17T14:40:36.499Z,101310.97
2022-10-17T14:42:42.405Z,101304.65
2022-10-17T14:44:47.634Z,101304.78
2022-10-17T14:46:53.354Z,101304.09
2022-10-17T14:48:59.029Z,101308.83
2022-10-17T14:51:04.793Z,101312.02
2022-10-17T14:53:10.873Z,101308.09
2022-10-17T14:55:17.523Z,101310
2022-10-17T14:57:24.763Z,101310.17
2022-10-17T14:59:55.895Z,101312.73
2022-10-17T15:02:02.089Z,101307.95
2022-10-17T15:04:08.351Z,101301.42
2022-10-17T15:06:14.543Z,101297.89
2022-10-17T15:08:20.931Z,101296.11
2022-10-17T15:10:27.356Z,101296.2
2022-10-17T15:12:33.998Z,101293.25
2022-10-17T15:14:40.438Z,101291.7
2022-10-17T15:16:47.136Z,101294.61
2022-10-17T15:18:53.798Z,101292.75
2022-10-17T15:21:19.657Z,101293.95
2022-10-17T15:23:50.530Z,101300.78
2022-10-17T15:25:57.127Z,101306.38
2022-10-17T15:28:03.605Z,101310.22
2022-10-17T15:30:10.153Z,101314.86
2022-10-17T15:32:16.726Z,101312.59
2022-10-17T15:34:23.212Z,101310.61
2022-10-17T15:36:29.773Z,101309.73
2022-10-17T15:38:37.030Z,101308.88
2022-10-17T15:40:43.163Z,101306.73
2022-10-17T15:42:49.428Z,101303.09
2022-10-17T15:44:55.590Z,101307.64
2022-10-17T15:47:02.299Z,101302.56
2022-10-17T15:49:08.312Z,101298.02
2022-10-17T15:51:14.416Z,101302.28
2022-10-17T15:53:20.758Z,101304.84
2022-10-17T15:55:26.864Z,101307.95
2022-10-17T15:57:33.805Z,101310.94
2022-10-17T15:59:41.550Z,101312.06
2022-10-17T16:01:47.432Z,101313.46
2022-10-17T16:03:53.707Z,101311.47
2022-10-17T16:05:59.944Z,101312.44
2022-10-17T16:08:05.832Z,101317.47
2022-10-17T16:10:11.976Z,101318.34
2022-10-17T16:12:19.595Z,101317.39
2022-10-17T16:14:26.114Z,101316.41
2022-10-17T16:16:33.949Z,101313.35
2022-10-17T16:18:40.315Z,101317.13
2022-10-17T16:20:46.485Z,101317.14
2022-10-17T16:22:52.950Z,101318.31
2022-10-17T16:24:59.870Z,101318.91
2022-10-17T16:27:05.909Z,101319.83
2022-10-17T16:29:14.400Z,101321.45
2022-10-17T16:31:21.708Z,101318.22
2022-10-17T16:33:28.553Z,101316.58
2022-10-17T16:35:39.324Z,101315.16
2022-10-17T16:37:45.779Z,101311.93
2022-10-17T16:39:52.476Z,101313.34
2022-10-17T16:42:00.534Z,101310.54
2022-10-17T16:44:07.010Z,101311.88
2022-10-17T16:46:13.123Z,101312.97
2022-10-17T16:48:19.811Z,101308.63
2022-10-17T16:50:33.063Z,101305.22
2022-10-17T16:52:39.675Z,101303.83
2022-10-17T16:54:46.097Z,101305.08
2022-10-17T16:56:52.343Z,101304.92
2022-10-17T16:58:59.323Z,101301.58
2022-10-17T17:01:08.310Z,101303.17
2022-10-17T17:03:18.805Z,101304.31
2022-10-17T17:05:27.565Z,101305.89
2022-10-17T17:07:37.007Z,101299.49
2022-10-17T17:09:44.502Z,101304.48
2022-10-17T17:11:50.949Z,101307.47
2022-10-17T17:13:58.416Z,101308.55
2022-10-17T17:16:05.070Z,101308.05
2022-10-17T17:18:13.535Z,101309.55
2022-10-17T17:20:26.944Z,101310.45
2022-10-17T17:22:36.607Z,101310.38
2022-10-17T17:26:54.574Z,101308.4
2022-10-17T17:29:03.730Z,101309.06
2022-10-17T17:31:11.610Z,101309.39
2022-10-17T17:33:20.147Z,101308.39
2022-10-17T17:35:28.598Z,101311.63
2022-10-17T17:37:42.392Z,101312.14
2022-10-17T17:39:53.113Z,101310.05
2022-10-17T17:42:01.099Z,101313.52
2022-10-17T17:44:17.183Z,101306.37
2022-10-17T17:46:26.252Z,101307.38
2022-10-17T17:48:34.113Z,101308.19
2022-10-17T17:50:42.645Z,101313.28
2022-10-17T17:52:53.163Z,101314.19
2022-10-17T17:55:04.165Z,101310.04
2022-10-17T17:57:12.703Z,101306.11
2022-10-17T17:59:22.615Z,101305.04
2022-10-17T18:01:29.748Z,101309.34
2022-10-17T18:03:37.776Z,101307.84
2022-10-17T18:05:46.727Z,101306.08
2022-10-17T18:07:55.628Z,101310.21
2022-10-17T18:10:04.698Z,101309.62
2022-10-17T18:12:12.002Z,101313.42
2022-10-17T18:14:27.834Z,101310.84
2022-10-17T18:16:41.231Z,101311.61
2022-10-17T18:18:49.197Z,101307.34
2022-10-17T18:20:56.734Z,101307.08
2022-10-17T18:23:06.588Z,101307.47
2022-10-17T18:25:20.104Z,101310.05
2022-10-17T18:27:28.823Z,101305.98
2022-10-17T18:29:35.612Z,101311.2
2022-10-17T18:31:43.886Z,101308.2
2022-10-17T18:33:51.446Z,101301.36
2022-10-17T18:36:06.050Z,101303.02
2022-10-17T18:38:21.683Z,101303.11
2022-10-17T18:40:29.977Z,101302.78
2022-10-17T18:42:40.425Z,101302.7
2022-10-17T18:44:49.931Z,101300.19
2022-10-17T18:47:07.342Z,101295.45
2022-10-17T18:49:16.236Z,101295.65
2022-10-17T18:51:26.165Z,101294.3
2022-10-17T18:53:39.953Z,101298.3
2022-10-17T18:55:49.425Z,101297.7
2022-10-17T18:58:00.252Z,101298.73
2022-10-17T19:00:13.605Z,101300.55
2022-10-17T19:02:25.808Z,101295.8
2022-10-17T19:04:42.238Z,101299.85
2022-10-17T19:06:49.267Z,101292.08
2022-10-17T19:08:58.565Z,101297.5
2022-10-17T19:11:11.539Z,101296.14
2022-10-17T19:13:23.071Z,101296.33
2022-10-17T19:15:36.258Z,101296.7
2022-10-17T19:17:43.620Z,101300.61
2022-10-17T19:19:51.346Z,101301.66
2022-10-17T19:21:57.655Z,101297.75
2022-10-17T19:24:06.467Z,101289.88
2022-10-17T19:26:14.967Z,101289.47
2022-10-17T19:28:22.463Z,101286.54
2022-10-17T19:30:31.732Z,101284.45
2022-10-17T19:32:38.934Z,101280.47
2022-10-17T19:34:47.121Z,101280.09
2022-10-17T19:36:55.298Z,101275.67
2022-10-17T19:39:02.988Z,101282.73
2022-10-17T19:41:15.044Z,101279.48
2022-10-17T19:43:22.722Z,101281.56
2022-10-17T19:45:33.879Z,101283.16
2022-10-17T19:47:40.749Z,101278.24
2022-10-17T19:50:06.217Z,101278.58
2022-10-17T19:52:13.150Z,101278.81
2022-10-17T19:54:21.934Z,101276.52
2022-10-17T19:56:29.159Z,101277.77
2022-10-17T19:58:37.116Z,101275.7
2022-10-17T20:00:46.003Z,101281.07
2022-10-17T20:02:54.875Z,101278.13
2022-10-17T20:05:23.670Z,101275.44
2022-10-17T20:07:33.647Z,101275.03
2022-10-17T20:09:39.888Z,101270.15
2022-10-17T20:11:49.163Z,101272.7
2022-10-17T20:13:56.325Z,101269.84
2022-10-17T20:16:07.102Z,101265.56
2022-10-17T20:18:13.822Z,101263.77
2022-10-17T20:20:23.685Z,101261.02
2022-10-17T20:22:32.843Z,101262.86
2022-10-17T20:24:39.186Z,101257.41
2022-10-17T20:26:45.666Z,101264.23
2022-10-17T20:28:53.140Z,101258.66
2022-10-17T20:30:59.858Z,101259.45
2022-10-17T20:33:06.406Z,101260.4
2022-10-17T20:35:14.123Z,101258.44
2022-10-17T20:37:20.666Z,101254.72
2022-10-17T20:39:27.248Z,101255.38
2022-10-17T20:41:33.247Z,101252.47
2022-10-17T20:43:39.609Z,101247.11
2022-10-17T20:45:59.164Z,101244.27
2022-10-17T20:48:40.324Z,101244.86
2022-10-17T20:50:46.633Z,101240.27
2022-10-17T20:53:24.756Z,101238.06
2022-10-17T20:55:42.387Z,101235.99
2022-10-17T20:57:47.868Z,101231.09
2022-10-17T20:59:53.476Z,101229.55
2022-10-17T21:01:59.439Z,101234.79
2022-10-17T21:04:51.733Z,101227.22
2022-10-17T21:06:57.090Z,101220.12
2022-10-17T21:09:02.763Z,101222.97
2022-10-17T21:11:08.352Z,101223.03
2022-10-17T21:13:14.010Z,101220.9
2022-10-17T21:15:19.770Z,101219.58
2022-10-17T21:17:25.416Z,101223.13
2022-10-17T21:19:30.794Z,101222.52
2022-10-17T21:21:36.401Z,101218.15
2022-10-17T21:23:41.765Z,101221.42
2022-10-17T21:25:47.000Z,101217.65
2022-10-17T21:27:52.346Z,101216.84
2022-10-17T21:29:57.560Z,101215.3
2022-10-17T21:32:07.543Z,101215.55
2022-10-17T21:34:55.244Z,101223.88
2022-10-17T21:37:00.557Z,101219.62
2022-10-17T21:41:11.931Z,101214.76
2022-10-17T21:43:17.107Z,101215.66
2022-10-17T21:45:27.358Z,101215.06
2022-10-17T21:47:32.432Z,101214.98
2022-10-17T21:49:41.629Z,101211.85
2022-10-17T21:51:47.213Z,101209.63
2022-10-17T21:53:52.581Z,101210.03
2022-10-17T21:55:57.876Z,101211.36
2022-10-17T21:58:04.475Z,101203.48
2022-10-17T22:00:10.472Z,101205.2
2022-10-17T22:02:17.546Z,101203.19
2022-10-17T22:04:22.768Z,101204.57
2022-10-17T22:06:44.026Z,101199.5
2022-10-17T22:08:49.880Z,101201.11
2022-10-17T22:10:55.942Z,101200.84
2022-10-17T22:13:02.108Z,101199.7
2022-10-17T22:15:07.687Z,101199.59
2022-10-17T22:17:14.044Z,101199.34
2022-10-17T22:19:19.627Z,101197.09
2022-10-17T22:21:24.893Z,101193.86
2022-10-17T22:23:30.179Z,101193.27
2022-10-17T22:25:35.594Z,101194.09
2022-10-17T22:27:40.903Z,101196.06
2022-10-17T22:29:46.008Z,101194.42
2022-10-17T22:31:51.566Z,101194.91
2022-10-17T22:33:56.711Z,101194.03
2022-10-17T22:36:01.910Z,101193.41
2022-10-17T22:38:07.112Z,101190.86
2022-10-17T22:40:12.398Z,101192.87
2022-10-17T22:42:17.813Z,101190.61
2022-10-17T22:44:23.228Z,101191.59
2022-10-17T22:46:28.624Z,101193.35
2022-10-17T22:48:34.200Z,101191.99
2022-10-17T22:50:39.307Z,101197.78
2022-10-17T22:52:44.484Z,101198.83
2022-10-17T22:54:49.825Z,101201.71
2022-10-17T22:56:55.005Z,101199.32
2022-10-17T22:59:00.462Z,101197.73
2022-10-17T23:01:05.919Z,101196
2022-10-17T23:03:11.462Z,101190.7
2022-10-17T23:05:16.742Z,101191.53
2022-10-17T23:07:22.148Z,101189.45
2022-10-17T23:09:28.956Z,101185.8
2022-10-17T23:11:34.683Z,101188.2
2022-10-17T23:13:40.310Z,101180.44
2022-10-17T23:15:45.608Z,101180.56
2022-10-17T23:17:50.961Z,101181.05
2022-10-17T23:19:59.036Z,101181.27
2022-10-17T23:22:04.171Z,101183.66
2022-10-17T23:24:09.554Z,101183.69
2022-10-17T23:26:14.807Z,101185.2
2022-10-17T23:28:20.018Z,101186.36
2022-10-17T23:30:25.269Z,101185.43
2022-10-17T23:32:31.344Z,101182.28
2022-10-17T23:34:37.691Z,101178.62
2022-10-17T23:36:43.046Z,101177.94
2022-10-17T23:38:48.742Z,101181.22
2022-10-17T23:41:01.366Z,101176.02
2022-10-17T23:43:06.733Z,101172.16
2022-10-17T23:45:12.126Z,101171.92
2022-10-17T23:47:17.479Z,101171.14
2022-10-17T23:49:22.924Z,101175.19
2022-10-17T23:51:28.394Z,101168.78
2022-10-17T23:53:33.571Z,101173.25
2022-10-17T23:55:38.967Z,101177.36
2022-10-17T23:57:44.925Z,101179.33
2022-10-17T23:59:50.126Z,101179.55
